sensor_id;sensor_type;location;lat;lon;timestamp;P1;durP1;ratioP1;P2;durP2;ratioP2
54328;SDS011;40710;51.120;13.136;2023-12-28T00:02:17;2.17;;;2.14;;
54328;SDS011;40710;51.120;13.136;2023-12-28T00:04:41;1.90;;;1.88;;
54328;SDS011;40710;51.120;13.136;2023-12-28T00:07:06;2.07;;;2.06;;
54328;SDS011;40710;51.120;13.136;2023-12-28T00:09:30;2.03;;;2.02;;
54328;SDS011;40710;51.120;13.136;2023-12-28T00:11:55;1.95;;;1.93;;
54328;SDS011;40710;51.120;13.136;2023-12-28T00:14:20;1.97;;;1.95;;
54328;SDS011;40710;51.120;13.136;2023-12-28T00:16:44;1.99;;;1.95;;
54328;SDS011;40710;51.120;13.136;2023-12-28T00:19:09;1.73;;;1.72;;
54328;SDS011;40710;51.120;13.136;2023-12-28T00:21:33;2.00;;;1.99;;
54328;SDS011;40710;51.120;13.136;2023-12-28T00:23:58;1.97;;;1.96;;
54328;SDS011;40710;51.120;13.136;2023-12-28T00:26:23;1.72;;;1.71;;
54328;SDS011;40710;51.120;13.136;2023-12-28T00:28:47;1.62;;;1.62;;
54328;SDS011;40710;51.120;13.136;2023-12-28T00:31:12;1.78;;;1.78;;
54328;SDS011;40710;51.120;13.136;2023-12-28T00:33:37;1.66;;;1.66;;
54328;SDS011;40710;51.120;13.136;2023-12-28T00:36:02;1.59;;;1.59;;
54328;SDS011;40710;51.120;13.136;2023-12-28T00:38:26;1.63;;;1.63;;
54328;SDS011;40710;51.120;13.136;2023-12-28T00:40:51;1.72;;;1.72;;
54328;SDS011;40710;51.120;13.136;2023-12-28T00:43:15;1.64;;;1.63;;
54328;SDS011;40710;51.120;13.136;2023-12-28T00:45:40;1.66;;;1.65;;
54328;SDS011;40710;51.120;13.136;2023-12-28T00:48:06;1.49;;;1.49;;
54328;SDS011;40710;51.120;13.136;2023-12-28T00:50:30;1.71;;;1.71;;
54328;SDS011;40710;51.120;13.136;2023-12-28T00:52:56;1.48;;;1.48;;
54328;SDS011;40710;51.120;13.136;2023-12-28T00:55:21;1.65;;;1.65;;
54328;SDS011;40710;51.120;13.136;2023-12-28T00:57:45;1.49;;;1.49;;
54328;SDS011;40710;51.120;13.136;2023-12-28T01:00:10;1.66;;;1.66;;
54328;SDS011;40710;51.120;13.136;2023-12-28T01:02:35;1.54;;;1.54;;
54328;SDS011;40710;51.120;13.136;2023-12-28T01:04:59;1.86;;;1.86;;
54328;SDS011;40710;51.120;13.136;2023-12-28T01:07:24;1.55;;;1.53;;
54328;SDS011;40710;51.120;13.136;2023-12-28T01:09:48;1.50;;;1.50;;
54328;SDS011;40710;51.120;13.136;2023-12-28T01:12:13;1.33;;;1.32;;
54328;SDS011;40710;51.120;13.136;2023-12-28T01:14:37;1.51;;;1.50;;
54328;SDS011;40710;51.120;13.136;2023-12-28T01:17:02;1.55;;;1.54;;
54328;SDS011;40710;51.120;13.136;2023-12-28T01:19:26;1.58;;;1.58;;
54328;SDS011;40710;51.120;13.136;2023-12-28T01:21:51;1.45;;;1.45;;
54328;SDS011;40710;51.120;13.136;2023-12-28T01:24:15;1.60;;;1.60;;
54328;SDS011;40710;51.120;13.136;2023-12-28T01:26:40;1.58;;;1.58;;
54328;SDS011;40710;51.120;13.136;2023-12-28T01:29:05;1.67;;;1.66;;
54328;SDS011;40710;51.120;13.136;2023-12-28T01:31:29;1.41;;;1.41;;
54328;SDS011;40710;51.120;13.136;2023-12-28T01:33:54;1.67;;;1.66;;
54328;SDS011;40710;51.120;13.136;2023-12-28T01:36:18;1.81;;;1.81;;
54328;SDS011;40710;51.120;13.136;2023-12-28T01:38:44;1.84;;;1.82;;
54328;SDS011;40710;51.120;13.136;2023-12-28T01:41:09;1.78;;;1.75;;
54328;SDS011;40710;51.120;13.136;2023-12-28T01:43:33;1.71;;;1.69;;
54328;SDS011;40710;51.120;13.136;2023-12-28T01:45:58;1.64;;;1.62;;
54328;SDS011;40710;51.120;13.136;2023-12-28T01:48:23;1.82;;;1.80;;
54328;SDS011;40710;51.120;13.136;2023-12-28T01:50:48;1.97;;;1.96;;
54328;SDS011;40710;51.120;13.136;2023-12-28T01:53:12;1.71;;;1.70;;
54328;SDS011;40710;51.120;13.136;2023-12-28T01:55:38;1.78;;;1.78;;
54328;SDS011;40710;51.120;13.136;2023-12-28T01:58:03;1.77;;;1.77;;
54328;SDS011;40710;51.120;13.136;2023-12-28T02:00:27;1.81;;;1.80;;
54328;SDS011;40710;51.120;13.136;2023-12-28T02:02:52;2.50;;;2.48;;
54328;SDS011;40710;51.120;13.136;2023-12-28T02:05:17;3.23;;;3.19;;
54328;SDS011;40710;51.120;13.136;2023-12-28T02:07:43;1.85;;;1.83;;
54328;SDS011;40710;51.120;13.136;2023-12-28T02:10:08;2.12;;;2.10;;
54328;SDS011;40710;51.120;13.136;2023-12-28T02:12:32;2.01;;;1.98;;
54328;SDS011;40710;51.120;13.136;2023-12-28T02:14:57;1.93;;;1.91;;
54328;SDS011;40710;51.120;13.136;2023-12-28T02:17:25;1.94;;;1.92;;
54328;SDS011;40710;51.120;13.136;2023-12-28T02:19:58;2.12;;;2.08;;
54328;SDS011;40710;51.120;13.136;2023-12-28T02:22:25;1.97;;;1.95;;
54328;SDS011;40710;51.120;13.136;2023-12-28T02:24:57;1.81;;;1.79;;
54328;SDS011;40710;51.120;13.136;2023-12-28T02:27:29;1.86;;;1.85;;
54328;SDS011;40710;51.120;13.136;2023-12-28T02:29:55;1.96;;;1.95;;
54328;SDS011;40710;51.120;13.136;2023-12-28T02:32:22;1.89;;;1.88;;
54328;SDS011;40710;51.120;13.136;2023-12-28T02:35:01;1.81;;;1.79;;
54328;SDS011;40710;51.120;13.136;2023-12-28T02:37:37;1.85;;;1.83;;
54328;SDS011;40710;51.120;13.136;2023-12-28T02:40:02;2.05;;;2.03;;
54328;SDS011;40710;51.120;13.136;2023-12-28T02:42:28;1.92;;;1.91;;
54328;SDS011;40710;51.120;13.136;2023-12-28T02:44:53;1.78;;;1.78;;
54328;SDS011;40710;51.120;13.136;2023-12-28T02:47:17;1.91;;;1.91;;
54328;SDS011;40710;51.120;13.136;2023-12-28T02:49:42;1.99;;;1.99;;
54328;SDS011;40710;51.120;13.136;2023-12-28T02:52:06;1.80;;;1.80;;
54328;SDS011;40710;51.120;13.136;2023-12-28T02:54:31;1.81;;;1.81;;
54328;SDS011;40710;51.120;13.136;2023-12-28T02:56:55;2.19;;;2.17;;
54328;SDS011;40710;51.120;13.136;2023-12-28T02:59:20;2.04;;;2.02;;
54328;SDS011;40710;51.120;13.136;2023-12-28T03:01:44;1.97;;;1.94;;
54328;SDS011;40710;51.120;13.136;2023-12-28T03:04:09;2.03;;;1.99;;
54328;SDS011;40710;51.120;13.136;2023-12-28T03:06:33;2.36;;;2.34;;
54328;SDS011;40710;51.120;13.136;2023-12-28T03:08:59;2.19;;;2.18;;
54328;SDS011;40710;51.120;13.136;2023-12-28T03:11:24;1.98;;;1.97;;
54328;SDS011;40710;51.120;13.136;2023-12-28T03:13:48;2.03;;;2.02;;
54328;SDS011;40710;51.120;13.136;2023-12-28T03:16:13;1.94;;;1.92;;
54328;SDS011;40710;51.120;13.136;2023-12-28T03:18:38;2.13;;;2.11;;
54328;SDS011;40710;51.120;13.136;2023-12-28T03:21:02;1.98;;;1.95;;
54328;SDS011;40710;51.120;13.136;2023-12-28T03:23:27;2.12;;;2.09;;
54328;SDS011;40710;51.120;13.136;2023-12-28T03:25:51;2.09;;;2.06;;
54328;SDS011;40710;51.120;13.136;2023-12-28T03:28:16;2.27;;;2.24;;
54328;SDS011;40710;51.120;13.136;2023-12-28T03:30:40;2.35;;;2.32;;
54328;SDS011;40710;51.120;13.136;2023-12-28T03:33:05;2.23;;;2.20;;
54328;SDS011;40710;51.120;13.136;2023-12-28T03:35:29;2.07;;;2.04;;
54328;SDS011;40710;51.120;13.136;2023-12-28T03:37:54;2.09;;;2.08;;
54328;SDS011;40710;51.120;13.136;2023-12-28T03:40:18;2.30;;;2.29;;
54328;SDS011;40710;51.120;13.136;2023-12-28T03:42:43;2.49;;;2.47;;
54328;SDS011;40710;51.120;13.136;2023-12-28T03:45:08;2.56;;;2.52;;
54328;SDS011;40710;51.120;13.136;2023-12-28T03:47:33;2.40;;;2.37;;
54328;SDS011;40710;51.120;13.136;2023-12-28T03:49:57;2.41;;;2.39;;
54328;SDS011;40710;51.120;13.136;2023-12-28T03:52:22;2.48;;;2.48;;
54328;SDS011;40710;51.120;13.136;2023-12-28T03:54:49;2.53;;;2.53;;
54328;SDS011;40710;51.120;13.136;2023-12-28T03:57:14;2.43;;;2.43;;
54328;SDS011;40710;51.120;13.136;2023-12-28T03:59:39;2.35;;;2.34;;
54328;SDS011;40710;51.120;13.136;2023-12-28T04:02:04;2.49;;;2.47;;
54328;SDS011;40710;51.120;13.136;2023-12-28T04:04:29;2.52;;;2.50;;
54328;SDS011;40710;51.120;13.136;2023-12-28T04:06:53;2.73;;;2.70;;
54328;SDS011;40710;51.120;13.136;2023-12-28T04:09:18;2.65;;;2.61;;
54328;SDS011;40710;51.120;13.136;2023-12-28T04:11:43;2.50;;;2.46;;
54328;SDS011;40710;51.120;13.136;2023-12-28T04:14:08;2.60;;;2.55;;
54328;SDS011;40710;51.120;13.136;2023-12-28T04:16:33;2.84;;;2.79;;
54328;SDS011;40710;51.120;13.136;2023-12-28T04:18:57;2.41;;;2.37;;
54328;SDS011;40710;51.120;13.136;2023-12-28T04:21:22;2.56;;;2.52;;
54328;SDS011;40710;51.120;13.136;2023-12-28T04:23:46;2.58;;;2.55;;
54328;SDS011;40710;51.120;13.136;2023-12-28T04:26:11;2.81;;;2.79;;
54328;SDS011;40710;51.120;13.136;2023-12-28T04:28:35;2.64;;;2.62;;
54328;SDS011;40710;51.120;13.136;2023-12-28T04:31:03;2.62;;;2.60;;
54328;SDS011;40710;51.120;13.136;2023-12-28T04:33:28;2.55;;;2.54;;
54328;SDS011;40710;51.120;13.136;2023-12-28T04:35:53;2.64;;;2.63;;
54328;SDS011;40710;51.120;13.136;2023-12-28T04:38:18;2.57;;;2.57;;
54328;SDS011;40710;51.120;13.136;2023-12-28T04:40:43;2.58;;;2.58;;
54328;SDS011;40710;51.120;13.136;2023-12-28T04:43:07;2.40;;;2.40;;
54328;SDS011;40710;51.120;13.136;2023-12-28T04:45:32;2.50;;;2.50;;
54328;SDS011;40710;51.120;13.136;2023-12-28T04:47:56;2.54;;;2.54;;
54328;SDS011;40710;51.120;13.136;2023-12-28T04:50:21;2.86;;;2.85;;
54328;SDS011;40710;51.120;13.136;2023-12-28T04:52:45;2.73;;;2.70;;
54328;SDS011;40710;51.120;13.136;2023-12-28T04:55:10;2.73;;;2.72;;
54328;SDS011;40710;51.120;13.136;2023-12-28T04:57:34;2.62;;;2.62;;
54328;SDS011;40710;51.120;13.136;2023-12-28T04:59:59;2.96;;;2.95;;
54328;SDS011;40710;51.120;13.136;2023-12-28T05:02:23;3.00;;;2.99;;
54328;SDS011;40710;51.120;13.136;2023-12-28T05:04:48;2.91;;;2.89;;
54328;SDS011;40710;51.120;13.136;2023-12-28T05:07:12;3.01;;;2.99;;
54328;SDS011;40710;51.120;13.136;2023-12-28T05:09:37;3.08;;;3.04;;
54328;SDS011;40710;51.120;13.136;2023-12-28T05:12:01;3.15;;;3.11;;
54328;SDS011;40710;51.120;13.136;2023-12-28T05:14:26;4.02;;;3.98;;
54328;SDS011;40710;51.120;13.136;2023-12-28T05:16:51;3.24;;;3.21;;
54328;SDS011;40710;51.120;13.136;2023-12-28T05:19:15;2.72;;;2.69;;
54328;SDS011;40710;51.120;13.136;2023-12-28T05:21:40;3.25;;;3.21;;
54328;SDS011;40710;51.120;13.136;2023-12-28T05:24:05;2.99;;;2.94;;
54328;SDS011;40710;51.120;13.136;2023-12-28T05:26:30;3.27;;;3.22;;
54328;SDS011;40710;51.120;13.136;2023-12-28T05:28:54;3.12;;;3.07;;
54328;SDS011;40710;51.120;13.136;2023-12-28T05:31:19;3.05;;;3.01;;
54328;SDS011;40710;51.120;13.136;2023-12-28T05:33:43;3.19;;;3.17;;
54328;SDS011;40710;51.120;13.136;2023-12-28T05:36:08;3.01;;;3.00;;
54328;SDS011;40710;51.120;13.136;2023-12-28T05:38:32;3.21;;;3.18;;
54328;SDS011;40710;51.120;13.136;2023-12-28T05:40:57;3.18;;;3.14;;
54328;SDS011;40710;51.120;13.136;2023-12-28T05:43:22;2.98;;;2.96;;
54328;SDS011;40710;51.120;13.136;2023-12-28T05:45:46;3.06;;;3.04;;
54328;SDS011;40710;51.120;13.136;2023-12-28T05:48:11;3.30;;;3.28;;
54328;SDS011;40710;51.120;13.136;2023-12-28T05:50:36;3.27;;;3.23;;
54328;SDS011;40710;51.120;13.136;2023-12-28T05:53:00;3.13;;;3.11;;
54328;SDS011;40710;51.120;13.136;2023-12-28T05:55:25;2.93;;;2.91;;
54328;SDS011;40710;51.120;13.136;2023-12-28T05:57:49;3.08;;;3.05;;
54328;SDS011;40710;51.120;13.136;2023-12-28T06:00:14;3.11;;;3.09;;
54328;SDS011;40710;51.120;13.136;2023-12-28T06:02:39;3.34;;;3.29;;
54328;SDS011;40710;51.120;13.136;2023-12-28T06:05:03;2.97;;;2.93;;
54328;SDS011;40710;51.120;13.136;2023-12-28T06:07:28;3.30;;;3.29;;
54328;SDS011;40710;51.120;13.136;2023-12-28T06:09:53;3.20;;;3.19;;
54328;SDS011;40710;51.120;13.136;2023-12-28T06:12:17;3.21;;;3.20;;
54328;SDS011;40710;51.120;13.136;2023-12-28T06:14:42;3.42;;;3.37;;
54328;SDS011;40710;51.120;13.136;2023-12-28T06:17:06;3.40;;;3.35;;
54328;SDS011;40710;51.120;13.136;2023-12-28T06:19:31;3.27;;;3.23;;
54328;SDS011;40710;51.120;13.136;2023-12-28T06:21:55;3.34;;;3.31;;
54328;SDS011;40710;51.120;13.136;2023-12-28T06:24:22;3.13;;;3.11;;
54328;SDS011;40710;51.120;13.136;2023-12-28T06:26:46;3.39;;;3.38;;
54328;SDS011;40710;51.120;13.136;2023-12-28T06:29:11;3.36;;;3.36;;
54328;SDS011;40710;51.120;13.136;2023-12-28T06:31:36;3.17;;;3.15;;
54328;SDS011;40710;51.120;13.136;2023-12-28T06:34:04;3.50;;;3.47;;
54328;SDS011;40710;51.120;13.136;2023-12-28T06:36:30;3.38;;;3.35;;
54328;SDS011;40710;51.120;13.136;2023-12-28T06:38:54;3.39;;;3.36;;
54328;SDS011;40710;51.120;13.136;2023-12-28T06:41:19;3.29;;;3.28;;
54328;SDS011;40710;51.120;13.136;2023-12-28T06:43:43;3.12;;;3.11;;
54328;SDS011;40710;51.120;13.136;2023-12-28T06:46:08;4.61;;;4.61;;
54328;SDS011;40710;51.120;13.136;2023-12-28T06:48:32;3.57;;;3.56;;
54328;SDS011;40710;51.120;13.136;2023-12-28T06:50:57;3.46;;;3.45;;
54328;SDS011;40710;51.120;13.136;2023-12-28T06:53:22;3.61;;;3.57;;
54328;SDS011;40710;51.120;13.136;2023-12-28T06:55:46;3.53;;;3.48;;
54328;SDS011;40710;51.120;13.136;2023-12-28T06:58:11;3.95;;;3.90;;
54328;SDS011;40710;51.120;13.136;2023-12-28T07:00:35;3.51;;;3.47;;
54328;SDS011;40710;51.120;13.136;2023-12-28T07:03:00;3.69;;;3.65;;
54328;SDS011;40710;51.120;13.136;2023-12-28T07:05:24;3.43;;;3.39;;
54328;SDS011;40710;51.120;13.136;2023-12-28T07:07:49;3.90;;;3.86;;
54328;SDS011;40710;51.120;13.136;2023-12-28T07:10:13;3.55;;;3.54;;
54328;SDS011;40710;51.120;13.136;2023-12-28T07:12:38;3.63;;;3.63;;
54328;SDS011;40710;51.120;13.136;2023-12-28T07:15:03;3.70;;;3.70;;
54328;SDS011;40710;51.120;13.136;2023-12-28T07:17:27;3.63;;;3.63;;
54328;SDS011;40710;51.120;13.136;2023-12-28T07:19:52;3.59;;;3.58;;
54328;SDS011;40710;51.120;13.136;2023-12-28T07:22:16;3.82;;;3.82;;
54328;SDS011;40710;51.120;13.136;2023-12-28T07:24:41;3.86;;;3.83;;
54328;SDS011;40710;51.120;13.136;2023-12-28T07:27:06;4.05;;;4.00;;
54328;SDS011;40710;51.120;13.136;2023-12-28T07:29:30;4.10;;;4.04;;
54328;SDS011;40710;51.120;13.136;2023-12-28T07:31:55;3.99;;;3.94;;
54328;SDS011;40710;51.120;13.136;2023-12-28T07:34:19;3.67;;;3.64;;
54328;SDS011;40710;51.120;13.136;2023-12-28T07:36:44;3.74;;;3.71;;
54328;SDS011;40710;51.120;13.136;2023-12-28T07:39:08;3.62;;;3.61;;
54328;SDS011;40710;51.120;13.136;2023-12-28T07:41:34;3.72;;;3.72;;
54328;SDS011;40710;51.120;13.136;2023-12-28T07:43:59;4.02;;;4.02;;
54328;SDS011;40710;51.120;13.136;2023-12-28T07:46:23;4.07;;;4.03;;
54328;SDS011;40710;51.120;13.136;2023-12-28T07:48:48;3.86;;;3.83;;
54328;SDS011;40710;51.120;13.136;2023-12-28T07:51:13;4.02;;;3.98;;
54328;SDS011;40710;51.120;13.136;2023-12-28T07:53:38;4.31;;;4.27;;
54328;SDS011;40710;51.120;13.136;2023-12-28T07:56:02;4.09;;;4.03;;
54328;SDS011;40710;51.120;13.136;2023-12-28T07:58:28;4.76;;;4.71;;
54328;SDS011;40710;51.120;13.136;2023-12-28T08:00:53;4.64;;;4.57;;
54328;SDS011;40710;51.120;13.136;2023-12-28T08:03:17;4.23;;;4.21;;
54328;SDS011;40710;51.120;13.136;2023-12-28T08:05:42;4.20;;;4.17;;
54328;SDS011;40710;51.120;13.136;2023-12-28T08:08:06;4.15;;;4.09;;
54328;SDS011;40710;51.120;13.136;2023-12-28T08:10:31;3.99;;;3.92;;
54328;SDS011;40710;51.120;13.136;2023-12-28T08:12:55;4.17;;;4.12;;
54328;SDS011;40710;51.120;13.136;2023-12-28T08:15:20;4.28;;;4.22;;
54328;SDS011;40710;51.120;13.136;2023-12-28T08:17:45;3.91;;;3.86;;
54328;SDS011;40710;51.120;13.136;2023-12-28T08:20:09;3.96;;;3.96;;
54328;SDS011;40710;51.120;13.136;2023-12-28T08:22:34;5.06;;;4.99;;
54328;SDS011;40710;51.120;13.136;2023-12-28T08:24:58;4.00;;;3.91;;
54328;SDS011;40710;51.120;13.136;2023-12-28T08:27:23;4.26;;;4.20;;
54328;SDS011;40710;51.120;13.136;2023-12-28T08:29:47;4.41;;;4.36;;
54328;SDS011;40710;51.120;13.136;2023-12-28T08:32:12;4.14;;;4.07;;
54328;SDS011;40710;51.120;13.136;2023-12-28T08:34:36;4.33;;;4.28;;
54328;SDS011;40710;51.120;13.136;2023-12-28T08:37:01;4.17;;;4.11;;
54328;SDS011;40710;51.120;13.136;2023-12-28T08:39:26;3.79;;;3.74;;
54328;SDS011;40710;51.120;13.136;2023-12-28T08:41:50;3.60;;;3.58;;
54328;SDS011;40710;51.120;13.136;2023-12-28T08:44:15;4.02;;;4.00;;
54328;SDS011;40710;51.120;13.136;2023-12-28T08:46:39;4.36;;;4.34;;
54328;SDS011;40710;51.120;13.136;2023-12-28T08:49:04;4.12;;;4.07;;
54328;SDS011;40710;51.120;13.136;2023-12-28T08:51:28;3.76;;;3.74;;
54328;SDS011;40710;51.120;13.136;2023-12-28T08:53:53;3.89;;;3.88;;
54328;SDS011;40710;51.120;13.136;2023-12-28T08:56:19;4.17;;;4.12;;
54328;SDS011;40710;51.120;13.136;2023-12-28T08:58:45;4.53;;;4.48;;
54328;SDS011;40710;51.120;13.136;2023-12-28T09:01:16;4.27;;;4.22;;
54328;SDS011;40710;51.120;13.136;2023-12-28T09:03:42;4.05;;;4.00;;
54328;SDS011;40710;51.120;13.136;2023-12-28T09:06:06;4.10;;;4.07;;
54328;SDS011;40710;51.120;13.136;2023-12-28T09:08:32;4.17;;;4.15;;
54328;SDS011;40710;51.120;13.136;2023-12-28T09:10:56;4.21;;;4.16;;
54328;SDS011;40710;51.120;13.136;2023-12-28T09:13:21;4.27;;;4.19;;
54328;SDS011;40710;51.120;13.136;2023-12-28T09:15:45;4.12;;;4.08;;
54328;SDS011;40710;51.120;13.136;2023-12-28T09:18:10;4.73;;;4.67;;
54328;SDS011;40710;51.120;13.136;2023-12-28T09:20:34;4.19;;;4.16;;
54328;SDS011;40710;51.120;13.136;2023-12-28T09:22:59;4.11;;;4.07;;
54328;SDS011;40710;51.120;13.136;2023-12-28T09:25:24;4.17;;;4.14;;
54328;SDS011;40710;51.120;13.136;2023-12-28T09:27:49;4.05;;;4.01;;
54328;SDS011;40710;51.120;13.136;2023-12-28T09:30:13;4.26;;;4.23;;
54328;SDS011;40710;51.120;13.136;2023-12-28T09:32:38;4.05;;;4.04;;
54328;SDS011;40710;51.120;13.136;2023-12-28T09:35:02;4.22;;;4.21;;
54328;SDS011;40710;51.120;13.136;2023-12-28T09:37:27;4.20;;;4.19;;
54328;SDS011;40710;51.120;13.136;2023-12-28T09:39:52;4.45;;;4.45;;
54328;SDS011;40710;51.120;13.136;2023-12-28T09:42:17;4.61;;;4.59;;
54328;SDS011;40710;51.120;13.136;2023-12-28T09:44:56;4.46;;;4.43;;
54328;SDS011;40710;51.120;13.136;2023-12-28T09:47:20;4.18;;;4.17;;
54328;SDS011;40710;51.120;13.136;2023-12-28T09:49:45;4.13;;;4.11;;
54328;SDS011;40710;51.120;13.136;2023-12-28T09:52:11;4.19;;;4.18;;
54328;SDS011;40710;51.120;13.136;2023-12-28T09:54:36;4.01;;;4.00;;
54328;SDS011;40710;51.120;13.136;2023-12-28T09:57:00;4.08;;;4.07;;
54328;SDS011;40710;51.120;13.136;2023-12-28T09:59:25;4.22;;;4.20;;
54328;SDS011;40710;51.120;13.136;2023-12-28T10:01:51;4.27;;;4.22;;
54328;SDS011;40710;51.120;13.136;2023-12-28T10:04:19;4.01;;;3.97;;
54328;SDS011;40710;51.120;13.136;2023-12-28T10:06:44;4.34;;;4.33;;
54328;SDS011;40710;51.120;13.136;2023-12-28T10:09:08;4.98;;;4.97;;
54328;SDS011;40710;51.120;13.136;2023-12-28T10:11:33;4.07;;;4.04;;
54328;SDS011;40710;51.120;13.136;2023-12-28T10:13:58;4.22;;;4.19;;
54328;SDS011;40710;51.120;13.136;2023-12-28T10:16:23;4.02;;;4.00;;
54328;SDS011;40710;51.120;13.136;2023-12-28T10:18:47;4.14;;;4.10;;
54328;SDS011;40710;51.120;13.136;2023-12-28T10:21:12;4.31;;;4.26;;
54328;SDS011;40710;51.120;13.136;2023-12-28T10:23:37;4.38;;;4.34;;
54328;SDS011;40710;51.120;13.136;2023-12-28T10:26:03;4.28;;;4.24;;
54328;SDS011;40710;51.120;13.136;2023-12-28T10:28:34;4.52;;;4.49;;
54328;SDS011;40710;51.120;13.136;2023-12-28T10:30:59;4.31;;;4.28;;
54328;SDS011;40710;51.120;13.136;2023-12-28T10:33:23;4.17;;;4.14;;
54328;SDS011;40710;51.120;13.136;2023-12-28T10:35:49;3.89;;;3.88;;
54328;SDS011;40710;51.120;13.136;2023-12-28T10:38:15;4.12;;;4.12;;
54328;SDS011;40710;51.120;13.136;2023-12-28T10:40:41;3.89;;;3.89;;
54328;SDS011;40710;51.120;13.136;2023-12-28T10:43:08;3.99;;;3.97;;
54328;SDS011;40710;51.120;13.136;2023-12-28T10:45:39;3.76;;;3.76;;
54328;SDS011;40710;51.120;13.136;2023-12-28T10:48:05;3.87;;;3.84;;
54328;SDS011;40710;51.120;13.136;2023-12-28T10:50:38;3.73;;;3.71;;
54328;SDS011;40710;51.120;13.136;2023-12-28T10:55:48;4.74;;;4.66;;
54328;SDS011;40710;51.120;13.136;2023-12-28T10:58:39;4.05;;;3.99;;
54328;SDS011;40710;51.120;13.136;2023-12-28T11:01:37;3.73;;;3.72;;
54328;SDS011;40710;51.120;13.136;2023-12-28T11:04:40;3.90;;;3.87;;
54328;SDS011;40710;51.120;13.136;2023-12-28T11:07:13;3.86;;;3.79;;
54328;SDS011;40710;51.120;13.136;2023-12-28T11:09:41;3.80;;;3.75;;
54328;SDS011;40710;51.120;13.136;2023-12-28T11:12:06;3.65;;;3.60;;
54328;SDS011;40710;51.120;13.136;2023-12-28T11:14:32;3.72;;;3.67;;
54328;SDS011;40710;51.120;13.136;2023-12-28T11:16:59;3.95;;;3.95;;
54328;SDS011;40710;51.120;13.136;2023-12-28T11:19:27;3.82;;;3.82;;
54328;SDS011;40710;51.120;13.136;2023-12-28T11:21:54;3.52;;;3.50;;
54328;SDS011;40710;51.120;13.136;2023-12-28T11:24:20;3.60;;;3.60;;
54328;SDS011;40710;51.120;13.136;2023-12-28T11:26:51;3.76;;;3.71;;
54328;SDS011;40710;51.120;13.136;2023-12-28T11:29:18;3.69;;;3.68;;
54328;SDS011;40710;51.120;13.136;2023-12-28T11:31:43;3.56;;;3.54;;
54328;SDS011;40710;51.120;13.136;2023-12-28T11:34:08;3.37;;;3.36;;
54328;SDS011;40710;51.120;13.136;2023-12-28T11:36:44;3.41;;;3.38;;
54328;SDS011;40710;51.120;13.136;2023-12-28T11:39:13;4.54;;;4.49;;
54328;SDS011;40710;51.120;13.136;2023-12-28T11:41:49;3.94;;;3.88;;
54328;SDS011;40710;51.120;13.136;2023-12-28T11:44:14;3.42;;;3.37;;
54328;SDS011;40710;51.120;13.136;2023-12-28T11:46:41;3.59;;;3.53;;
54328;SDS011;40710;51.120;13.136;2023-12-28T11:49:06;3.28;;;3.24;;
54328;SDS011;40710;51.120;13.136;2023-12-28T11:51:35;3.45;;;3.42;;
54328;SDS011;40710;51.120;13.136;2023-12-28T11:54:02;3.27;;;3.25;;
54328;SDS011;40710;51.120;13.136;2023-12-28T11:56:27;3.13;;;3.13;;
54328;SDS011;40710;51.120;13.136;2023-12-28T11:58:52;3.15;;;3.15;;
54328;SDS011;40710;51.120;13.136;2023-12-28T12:01:16;3.28;;;3.28;;
54328;SDS011;40710;51.120;13.136;2023-12-28T12:03:41;2.98;;;2.98;;
54328;SDS011;40710;51.120;13.136;2023-12-28T12:06:06;3.16;;;3.16;;
54328;SDS011;40710;51.120;13.136;2023-12-28T12:08:31;3.22;;;3.18;;
54328;SDS011;40710;51.120;13.136;2023-12-28T12:11:05;3.16;;;3.14;;
54328;SDS011;40710;51.120;13.136;2023-12-28T12:13:31;3.41;;;3.39;;
54328;SDS011;40710;51.120;13.136;2023-12-28T12:15:56;2.98;;;2.97;;
54328;SDS011;40710;51.120;13.136;2023-12-28T12:18:21;2.96;;;2.95;;
54328;SDS011;40710;51.120;13.136;2023-12-28T12:20:45;3.20;;;3.16;;
54328;SDS011;40710;51.120;13.136;2023-12-28T12:23:10;2.96;;;2.95;;
54328;SDS011;40710;51.120;13.136;2023-12-28T12:25:37;3.21;;;3.21;;
54328;SDS011;40710;51.120;13.136;2023-12-28T12:28:02;2.72;;;2.72;;
54328;SDS011;40710;51.120;13.136;2023-12-28T12:30:28;3.01;;;2.96;;
54328;SDS011;40710;51.120;13.136;2023-12-28T12:32:52;2.97;;;2.95;;
54328;SDS011;40710;51.120;13.136;2023-12-28T12:35:17;2.78;;;2.78;;
54328;SDS011;40710;51.120;13.136;2023-12-28T12:37:43;2.86;;;2.85;;
54328;SDS011;40710;51.120;13.136;2023-12-28T12:40:09;2.84;;;2.81;;
54328;SDS011;40710;51.120;13.136;2023-12-28T12:42:34;2.92;;;2.90;;
54328;SDS011;40710;51.120;13.136;2023-12-28T12:44:58;2.77;;;2.77;;
54328;SDS011;40710;51.120;13.136;2023-12-28T12:47:23;2.82;;;2.82;;
54328;SDS011;40710;51.120;13.136;2023-12-28T12:49:48;2.75;;;2.75;;
54328;SDS011;40710;51.120;13.136;2023-12-28T12:52:15;2.81;;;2.80;;
54328;SDS011;40710;51.120;13.136;2023-12-28T12:54:40;2.76;;;2.76;;
54328;SDS011;40710;51.120;13.136;2023-12-28T12:57:04;2.68;;;2.68;;
54328;SDS011;40710;51.120;13.136;2023-12-28T12:59:29;2.68;;;2.68;;
54328;SDS011;40710;51.120;13.136;2023-12-28T13:01:55;2.48;;;2.47;;
54328;SDS011;40710;51.120;13.136;2023-12-28T13:04:20;2.68;;;2.67;;
54328;SDS011;40710;51.120;13.136;2023-12-28T13:06:45;2.51;;;2.51;;
54328;SDS011;40710;51.120;13.136;2023-12-28T13:09:10;2.48;;;2.46;;
54328;SDS011;40710;51.120;13.136;2023-12-28T13:11:35;2.59;;;2.59;;
54328;SDS011;40710;51.120;13.136;2023-12-28T13:14:00;2.47;;;2.44;;
54328;SDS011;40710;51.120;13.136;2023-12-28T13:16:25;2.61;;;2.59;;
54328;SDS011;40710;51.120;13.136;2023-12-28T13:18:49;2.45;;;2.42;;
54328;SDS011;40710;51.120;13.136;2023-12-28T13:21:14;2.43;;;2.42;;
54328;SDS011;40710;51.120;13.136;2023-12-28T13:23:38;2.20;;;2.20;;
54328;SDS011;40710;51.120;13.136;2023-12-28T13:26:03;2.36;;;2.36;;
54328;SDS011;40710;51.120;13.136;2023-12-28T13:28:27;2.44;;;2.44;;
54328;SDS011;40710;51.120;13.136;2023-12-28T13:30:52;2.24;;;2.24;;
54328;SDS011;40710;51.120;13.136;2023-12-28T13:33:19;2.32;;;2.32;;
54328;SDS011;40710;51.120;13.136;2023-12-28T13:35:44;2.22;;;2.22;;
54328;SDS011;40710;51.120;13.136;2023-12-28T13:38:08;2.14;;;2.13;;
54328;SDS011;40710;51.120;13.136;2023-12-28T13:40:33;2.36;;;2.36;;
54328;SDS011;40710;51.120;13.136;2023-12-28T13:42:57;2.35;;;2.35;;
54328;SDS011;40710;51.120;13.136;2023-12-28T13:45:22;2.40;;;2.39;;
54328;SDS011;40710;51.120;13.136;2023-12-28T13:47:47;2.59;;;2.55;;
54328;SDS011;40710;51.120;13.136;2023-12-28T13:50:11;3.02;;;2.97;;
54328;SDS011;40710;51.120;13.136;2023-12-28T13:52:36;2.47;;;2.44;;
54328;SDS011;40710;51.120;13.136;2023-12-28T13:55:00;2.22;;;2.19;;
54328;SDS011;40710;51.120;13.136;2023-12-28T13:57:25;2.20;;;2.18;;
54328;SDS011;40710;51.120;13.136;2023-12-28T13:59:49;2.18;;;2.16;;
54328;SDS011;40710;51.120;13.136;2023-12-28T14:02:14;2.02;;;2.02;;
54328;SDS011;40710;51.120;13.136;2023-12-28T14:04:39;1.84;;;1.84;;
54328;SDS011;40710;51.120;13.136;2023-12-28T14:07:03;1.85;;;1.85;;
54328;SDS011;40710;51.120;13.136;2023-12-28T14:09:28;1.93;;;1.93;;
54328;SDS011;40710;51.120;13.136;2023-12-28T14:11:52;2.10;;;2.10;;
54328;SDS011;40710;51.120;13.136;2023-12-28T14:14:17;2.11;;;2.11;;
54328;SDS011;40710;51.120;13.136;2023-12-28T14:16:41;2.15;;;2.15;;
54328;SDS011;40710;51.120;13.136;2023-12-28T14:19:06;2.32;;;2.30;;
54328;SDS011;40710;51.120;13.136;2023-12-28T14:21:35;2.10;;;2.08;;
54328;SDS011;40710;51.120;13.136;2023-12-28T14:24:03;1.90;;;1.89;;
54328;SDS011;40710;51.120;13.136;2023-12-28T14:26:28;1.80;;;1.79;;